METAR Data
IDs: Format: Raw Decoded Include TAF

Data at: 0422 UTC 31 May 2023

METAR for:KOXV (Knoxville Muni, IA, US)
Text:KOXV 310415Z AUTO 12003KT 10SM CLR 21/13 A2990 RMK AO2
Temperature: 21.0°C ( 70°F)
Dewpoint: 13.0°C ( 55°F) [RH = 60%]
Pressure (altimeter):29.90 inches Hg (1012.6 mb)
Winds:from the ESE (120 degrees) at 3 MPH (3 knots; 1.5 m/s)
Visibility:10 or more sm (16+ km)
Ceiling:at least 12,000 feet AGL
Clouds:sky clear below 12,000 feet AGL
QC Flag:automated observation with no human augmentation